createdAt,value
2022-12-18T00:01:27.709Z,10.03
2022-12-18T00:03:56.485Z,10.24
2022-12-18T00:06:26.421Z,10.22
2022-12-18T00:08:53.799Z,10.28
2022-12-18T00:11:22.983Z,10.18
2022-12-18T00:13:50.528Z,10.29
2022-12-18T00:16:22.838Z,10.28
2022-12-18T00:18:51.189Z,10.31
2022-12-18T00:21:19.426Z,10.23
2022-12-18T00:23:47.612Z,10.49
2022-12-18T00:26:20.564Z,10.55
2022-12-18T00:28:47.946Z,10.49
2022-12-18T00:31:20.998Z,10.71
2022-12-18T00:33:48.584Z,10.54
2022-12-18T00:36:22.436Z,10.43
2022-12-18T00:38:49.545Z,10.56
2022-12-18T00:41:39.427Z,10.58
2022-12-18T00:44:08.208Z,10.71
2022-12-18T00:46:35.156Z,10.68
2022-12-18T00:49:02.779Z,10.76
2022-12-18T00:51:29.711Z,10.73
2022-12-18T00:53:56.673Z,10.73
2022-12-18T00:56:23.884Z,10.75
2022-12-18T00:58:50.963Z,10.84
2022-12-18T01:01:18.611Z,10.69
2022-12-18T01:03:47.604Z,10.58
2022-12-18T01:06:16.923Z,10.65
2022-12-18T01:08:44.004Z,10.38
2022-12-18T01:11:18.770Z,10.49
2022-12-18T01:13:45.724Z,10.66
2022-12-18T01:16:14.176Z,10.75
2022-12-18T01:18:41.592Z,10.79
2022-12-18T01:21:10.420Z,10.77
2022-12-18T01:23:38.993Z,10.72
2022-12-18T01:26:11.730Z,10.69
2022-12-18T01:28:39.465Z,10.81
2022-12-18T01:31:28.361Z,10.82
2022-12-18T01:33:56.103Z,10.54
2022-12-18T01:36:26.142Z,10.58
2022-12-18T01:38:53.514Z,10.67
2022-12-18T01:41:25.943Z,10.68
2022-12-18T01:43:58.452Z,10.70
2022-12-18T01:46:27.112Z,10.69
2022-12-18T01:49:02.003Z,10.62
2022-12-18T01:51:30.940Z,10.69
2022-12-18T01:53:58.812Z,10.74
2022-12-18T01:56:25.735Z,10.64
2022-12-18T01:59:12.699Z,10.63
2022-12-18T02:01:39.728Z,10.57
2022-12-18T02:04:35.983Z,10.43
2022-12-18T02:07:16.036Z,10.53
2022-12-18T02:09:51.652Z,10.57
2022-12-18T02:12:25.579Z,10.55
2022-12-18T02:15:06.878Z,10.64
2022-12-18T02:18:06.824Z,10.62
2022-12-18T02:20:38.413Z,10.59
2022-12-18T02:23:24.292Z,10.47
2022-12-18T02:26:12.364Z,10.46
2022-12-18T02:28:45.663Z,10.14
2022-12-18T02:31:17.451Z,10.47
2022-12-18T02:33:46.574Z,10.44
2022-12-18T02:36:15.821Z,10.44
2022-12-18T02:45:28.214Z,10.39
2022-12-18T02:47:55.241Z,10.65
2022-12-18T02:50:35.876Z,10.68
2022-12-18T02:53:09.217Z,10.54
2022-12-18T02:56:08.593Z,10.35
2022-12-18T02:58:41.522Z,10.32
2022-12-18T03:01:15.224Z,10.31
2022-12-18T03:03:54.060Z,10.17
2022-12-18T03:06:38.331Z,10.23
2022-12-18T03:09:12.113Z,10.35
2022-12-18T03:12:01.650Z,10.46
2022-12-18T03:14:32.204Z,10.56
2022-12-18T03:17:02.870Z,10.52
2022-12-18T03:19:32.888Z,10.61
2022-12-18T03:22:04.404Z,10.56
2022-12-18T03:24:41.114Z,10.49
2022-12-18T03:27:15.146Z,10.44
2022-12-18T03:29:54.912Z,10.46
2022-12-18T03:32:31.980Z,10.37
2022-12-18T03:35:05.419Z,10.44
2022-12-18T03:37:36.127Z,10.49
2022-12-18T03:40:05.790Z,10.51
2022-12-18T03:42:58.932Z,10.59
2022-12-18T03:45:54.923Z,10.56
2022-12-18T03:48:45.060Z,10.41
2022-12-18T03:51:23.464Z,10.52
2022-12-18T03:54:03.380Z,10.56
2022-12-18T03:56:39.805Z,10.54
2022-12-18T03:59:11.065Z,10.53
2022-12-18T04:01:43.918Z,10.54
2022-12-18T04:04:15.379Z,10.62
2022-12-18T04:06:45.668Z,10.58
2022-12-18T04:09:14.737Z,10.59
2022-12-18T04:11:45.450Z,10.59
2022-12-18T04:14:17.959Z,10.56
2022-12-18T04:16:45.683Z,10.32
2022-12-18T04:19:15.939Z,10.20
2022-12-18T04:21:44.724Z,10.11
2022-12-18T04:24:13.736Z,10.18
2022-12-18T04:26:47.077Z,10.33
2022-12-18T04:29:18.786Z,10.43
2022-12-18T04:31:46.142Z,10.56
2022-12-18T04:34:13.089Z,10.57
2022-12-18T04:36:47.953Z,10.61
2022-12-18T04:39:20.750Z,10.63
2022-12-18T04:41:49.972Z,10.51
2022-12-18T04:44:16.969Z,10.65
2022-12-18T04:46:44.238Z,10.49
2022-12-18T04:49:14.503Z,10.40
2022-12-18T04:51:41.342Z,10.38
2022-12-18T04:54:08.204Z,10.41
2022-12-18T04:56:35.003Z,10.60
2022-12-18T04:59:01.871Z,10.54
2022-12-18T05:01:34.313Z,10.42
2022-12-18T05:04:02.747Z,10.18
2022-12-18T05:06:29.738Z,10.23
2022-12-18T05:08:56.679Z,10.23
2022-12-18T05:11:23.569Z,10.10
2022-12-18T05:13:50.366Z,10.08
2022-12-18T05:16:17.348Z,10.14
2022-12-18T05:18:44.431Z,10.20
2022-12-18T05:21:11.405Z,10.16
2022-12-18T05:23:38.938Z,10.13
2022-12-18T05:26:08.762Z,10.16
2022-12-18T05:28:37.431Z,10.18
2022-12-18T05:31:05.436Z,10.25
2022-12-18T05:33:35.339Z,10.29
2022-12-18T05:36:03.954Z,10.24
2022-12-18T05:38:32.256Z,10.14
2022-12-18T05:40:59.625Z,10.13
2022-12-18T05:43:27.865Z,10.30
2022-12-18T05:45:55.034Z,10.34
2022-12-18T05:48:22.387Z,10.37
2022-12-18T05:50:50.713Z,10.42
2022-12-18T05:53:20.387Z,10.41
2022-12-18T05:55:48.060Z,10.40
2022-12-18T05:58:15.546Z,10.48
2022-12-18T06:00:47.395Z,10.61
2022-12-18T06:03:14.858Z,10.62
2022-12-18T06:05:44.406Z,10.73
2022-12-18T06:08:12.291Z,10.77
2022-12-18T06:10:39.754Z,10.69
2022-12-18T06:13:07.834Z,10.67
2022-12-18T06:15:37.805Z,10.71
2022-12-18T06:18:04.700Z,10.78
2022-12-18T06:20:33.681Z,10.74
2022-12-18T06:23:01.301Z,10.53
2022-12-18T06:25:28.263Z,10.62
2022-12-18T06:27:55.268Z,10.70
2022-12-18T06:30:22.236Z,10.74
2022-12-18T06:32:53.156Z,10.64
2022-12-18T06:35:23.815Z,10.63
2022-12-18T06:37:50.886Z,10.57
2022-12-18T06:40:18.031Z,10.60
2022-12-18T06:42:44.894Z,10.74
2022-12-18T06:45:12.569Z,10.72
2022-12-18T06:47:39.436Z,10.76
2022-12-18T06:50:06.792Z,10.70
2022-12-18T06:52:34.570Z,10.70
2022-12-18T06:55:02.132Z,10.72
2022-12-18T06:57:29.711Z,10.70
2022-12-18T06:59:56.491Z,10.70
2022-12-18T07:02:23.435Z,10.70
2022-12-18T07:04:50.264Z,10.63
2022-12-18T07:07:17.145Z,10.70
2022-12-18T07:09:44.012Z,10.76
2022-12-18T07:12:10.912Z,10.86
2022-12-18T07:14:37.750Z,10.84
2022-12-18T07:17:04.660Z,10.88
2022-12-18T07:19:33.398Z,11.02
2022-12-18T07:22:07.319Z,11.05
2022-12-18T07:24:42.209Z,10.95
2022-12-18T07:27:09.235Z,11.00
2022-12-18T07:29:37.038Z,11.04
2022-12-18T07:32:05.136Z,10.99
2022-12-18T07:34:31.971Z,10.99
2022-12-18T07:36:59.264Z,11.00
2022-12-18T07:39:26.478Z,10.92
2022-12-18T07:42:11.859Z,10.88
2022-12-18T07:44:40.536Z,10.91
2022-12-18T07:47:11.761Z,11.03
2022-12-18T07:49:41.397Z,10.88
2022-12-18T07:52:09.230Z,10.83
2022-12-18T07:54:36.209Z,11.04
2022-12-18T07:57:03.096Z,11.04
2022-12-18T07:59:29.957Z,11.04
2022-12-18T08:01:57.041Z,10.98
2022-12-18T08:04:24.233Z,10.93
2022-12-18T08:06:51.893Z,10.93
2022-12-18T08:09:18.884Z,10.78
2022-12-18T08:11:46.271Z,10.77
2022-12-18T08:14:13.175Z,10.79
2022-12-18T08:16:40.872Z,10.80
2022-12-18T08:19:07.744Z,10.86
2022-12-18T08:21:35.285Z,10.93
2022-12-18T08:24:02.915Z,10.84
2022-12-18T08:26:31.280Z,10.62
2022-12-18T08:28:59.978Z,10.64
2022-12-18T08:31:28.666Z,10.61
2022-12-18T08:33:56.377Z,10.57
2022-12-18T08:36:24.984Z,10.56
2022-12-18T08:38:53.105Z,10.87
2022-12-18T08:41:21.427Z,10.77
2022-12-18T08:44:07.993Z,10.67
2022-12-18T08:46:42.783Z,10.81
2022-12-18T08:49:10.955Z,10.81
2022-12-18T08:51:38.371Z,10.82
2022-12-18T08:54:06.615Z,10.93
2022-12-18T08:56:34.291Z,10.73
2022-12-18T08:59:01.391Z,10.67
2022-12-18T09:01:28.617Z,10.75
2022-12-18T09:03:55.713Z,10.70
2022-12-18T09:06:23.585Z,10.67
2022-12-18T09:08:51.081Z,10.89
2022-12-18T09:11:33.378Z,10.90
2022-12-18T09:14:26.847Z,10.74
2022-12-18T09:16:53.845Z,11.05
2022-12-18T09:19:20.756Z,11.07
2022-12-18T09:21:48.414Z,10.96
2022-12-18T09:24:16.506Z,10.89
2022-12-18T09:26:43.890Z,10.79
2022-12-18T09:29:16.431Z,10.74
2022-12-18T09:31:46.070Z,10.87
2022-12-18T09:34:13.224Z,11.03
2022-12-18T09:36:40.323Z,10.77
2022-12-18T09:39:08.848Z,10.77
2022-12-18T09:41:44.179Z,10.92
2022-12-18T09:44:32.328Z,10.78
2022-12-18T09:47:17.453Z,10.78
2022-12-18T09:49:47.017Z,10.76
2022-12-18T09:52:26.622Z,10.79
2022-12-18T09:55:06.871Z,10.71
2022-12-18T09:57:38.213Z,10.75
2022-12-18T10:00:25.512Z,10.86
2022-12-18T10:02:57.452Z,10.81
2022-12-18T10:05:51.979Z,10.79
2022-12-18T10:08:40.711Z,10.76
2022-12-18T10:11:35.398Z,10.73
2022-12-18T10:14:13.262Z,10.55
2022-12-18T10:16:55.195Z,10.59
2022-12-18T10:19:24.713Z,10.53
2022-12-18T10:22:22.504Z,10.72
2022-12-18T10:25:00.589Z,10.74
2022-12-18T10:27:28.440Z,10.81
2022-12-18T10:29:55.879Z,10.70
2022-12-18T10:32:29.130Z,10.82
2022-12-18T10:35:00.774Z,10.94
2022-12-18T10:37:30.550Z,11.06
2022-12-18T10:40:21.955Z,11.15
2022-12-18T10:43:12.843Z,11.22
2022-12-18T10:45:40.507Z,11.25
2022-12-18T10:48:20.944Z,11.34
2022-12-18T10:53:38.451Z,11.21
2022-12-18T10:56:07.654Z,11.26
2022-12-18T10:58:36.483Z,11.53
2022-12-18T11:01:08.243Z,11.29
2022-12-18T11:03:40.380Z,11.02
2022-12-18T11:06:16.019Z,11.04
2022-12-18T11:08:58.841Z,11.03
2022-12-18T11:11:26.511Z,10.99
2022-12-18T11:14:20.023Z,10.82
2022-12-18T11:19:42.037Z,10.77
2022-12-18T11:22:27.318Z,10.42
2022-12-18T11:28:43.442Z,10.46
2022-12-18T11:31:28.923Z,10.37
2022-12-18T11:34:31.031Z,10.17
2022-12-18T11:37:01.640Z,10.27
2022-12-18T11:39:39.688Z,10.08
2022-12-18T11:42:20.811Z,10.10
2022-12-18T11:44:50.540Z,10.05
2022-12-18T11:47:40.106Z,9.77
2022-12-18T11:50:15.493Z,10.06
2022-12-18T11:52:43.503Z,9.94
2022-12-18T11:55:16.984Z,10.03
2022-12-18T11:58:13.938Z,10.05
2022-12-18T12:00:52.075Z,9.46
2022-12-18T12:03:44.321Z,9.45
2022-12-18T12:06:23.526Z,9.52
2022-12-18T12:09:42.243Z,9.50
2022-12-18T12:12:17.989Z,8.99
2022-12-18T12:15:23.300Z,8.86
2022-12-18T12:18:28.802Z,8.94
2022-12-18T12:21:18.189Z,9.05
2022-12-18T12:24:22.281Z,9.20
2022-12-18T12:27:01.094Z,9.34
2022-12-18T12:29:43.779Z,9.46
2022-12-18T12:32:43.917Z,9.43
2022-12-18T12:35:30.145Z,9.49
2022-12-18T12:38:21.567Z,9.57
2022-12-18T12:41:02.747Z,9.50
2022-12-18T12:46:40.430Z,9.43
2022-12-18T12:49:16.520Z,9.47
2022-12-18T12:51:48.295Z,9.44
2022-12-18T12:54:24.297Z,9.24
2022-12-18T12:56:59.582Z,9.29
2022-12-18T12:59:39.717Z,9.13
2022-12-18T13:02:34.622Z,9.15
2022-12-18T13:05:20.266Z,8.80
2022-12-18T13:08:10.288Z,8.82
2022-12-18T13:10:39.015Z,9.07
2022-12-18T13:13:10.487Z,9.25
2022-12-18T13:15:42.619Z,9.37
2022-12-18T13:18:09.927Z,9.45
2022-12-18T13:20:43.100Z,9.48
2022-12-18T13:23:28.040Z,9.54
2022-12-18T13:26:16.557Z,9.46
2022-12-18T13:28:46.439Z,9.54
2022-12-18T13:31:32.408Z,9.43
2022-12-18T13:34:26.148Z,9.47
2022-12-18T13:36:56.591Z,9.45
2022-12-18T13:39:32.768Z,9.40
2022-12-18T13:42:07.288Z,9.40
2022-12-18T13:44:40.951Z,9.40
2022-12-18T13:47:32.619Z,9.41
2022-12-18T13:50:00.177Z,9.42
2022-12-18T13:52:30.172Z,9.07
2022-12-18T13:55:00.314Z,9.13
2022-12-18T13:57:31.828Z,9.09
2022-12-18T13:59:59.930Z,9.02
2022-12-18T14:02:29.494Z,8.97
2022-12-18T14:04:57.751Z,9.12
2022-12-18T14:07:34.526Z,9.07
2022-12-18T14:13:09.392Z,9.06
2022-12-18T14:15:42.499Z,9.02
2022-12-18T14:18:26.668Z,8.81
2022-12-18T14:20:57.891Z,8.66
2022-12-18T14:23:40.340Z,8.62
2022-12-18T14:26:29.337Z,8.75
2022-12-18T14:29:26.638Z,8.59
2022-12-18T14:32:18.735Z,8.81
2022-12-18T14:34:58.030Z,8.97
2022-12-18T14:37:26.785Z,9.02
2022-12-18T14:40:10.892Z,8.79
2022-12-18T14:42:38.677Z,8.98
2022-12-18T14:45:39.136Z,8.94
2022-12-18T14:48:10.264Z,8.82
2022-12-18T14:50:39.550Z,8.58
2022-12-18T14:53:07.824Z,8.13
2022-12-18T14:55:34.798Z,8.30
2022-12-18T14:58:02.781Z,8.56
2022-12-18T15:00:29.842Z,8.55
2022-12-18T15:02:58.936Z,8.58
2022-12-18T15:05:30.051Z,8.54
2022-12-18T15:08:00.000Z,8.66
2022-12-18T15:10:35.846Z,8.24
2022-12-18T15:15:45.881Z,8.17
2022-12-18T15:18:20.617Z,8.23
2022-12-18T15:20:52.396Z,7.83
2022-12-18T15:23:27.265Z,7.92
2022-12-18T15:26:03.575Z,7.92
2022-12-18T15:28:36.140Z,7.96
2022-12-18T15:31:18.259Z,7.74
2022-12-18T15:34:19.172Z,7.74
2022-12-18T15:36:46.129Z,7.67
2022-12-18T15:39:14.258Z,7.70
2022-12-18T15:41:41.644Z,7.70
2022-12-18T15:44:25.737Z,7.63
2022-12-18T15:46:52.543Z,7.62
2022-12-18T15:49:19.340Z,7.85
2022-12-18T15:51:50.415Z,8.03
2022-12-18T15:54:17.826Z,7.78
2022-12-18T15:57:03.541Z,7.89
2022-12-18T15:59:30.386Z,7.69
2022-12-18T16:01:57.736Z,7.60
2022-12-18T16:04:25.741Z,7.77
2022-12-18T16:09:39.743Z,7.94
2022-12-18T16:12:11.536Z,7.65
2022-12-18T16:14:38.457Z,8.04
2022-12-18T16:17:11.316Z,8.00
2022-12-18T16:19:38.139Z,7.87
2022-12-18T16:22:05.948Z,7.63
2022-12-18T16:24:37.056Z,7.67
2022-12-18T16:27:04.454Z,7.69
2022-12-18T16:29:31.417Z,7.81
2022-12-18T16:31:59.943Z,7.81
2022-12-18T16:34:29.440Z,7.79
2022-12-18T16:37:07.369Z,7.78
2022-12-18T16:39:38.471Z,7.76
2022-12-18T16:42:17.444Z,7.63
2022-12-18T16:44:45.749Z,7.54
2022-12-18T16:47:15.044Z,7.42
2022-12-18T16:49:43.199Z,7.47
2022-12-18T16:52:10.505Z,7.46
2022-12-18T16:54:37.429Z,7.30
2022-12-18T16:57:05.454Z,7.46
2022-12-18T16:59:35.325Z,7.37
2022-12-18T17:02:06.127Z,7.29
2022-12-18T17:04:35.029Z,7.25
2022-12-18T17:07:01.956Z,7.33
2022-12-18T17:09:28.771Z,7.28
2022-12-18T17:11:56.370Z,7.43
2022-12-18T17:14:27.156Z,7.44
2022-12-18T17:17:19.826Z,7.53
2022-12-18T17:19:41.957Z,7.32
2022-12-18T17:22:09.505Z,7.34
2022-12-18T17:24:36.523Z,7.44
2022-12-18T17:27:04.706Z,7.36
2022-12-18T17:29:31.747Z,7.24
2022-12-18T17:32:00.294Z,7.31
2022-12-18T17:34:28.683Z,7.30
2022-12-18T17:36:56.891Z,7.14
2022-12-18T17:39:23.979Z,7.05
2022-12-18T17:41:50.831Z,6.95
2022-12-18T17:44:18.251Z,7.20
2022-12-18T17:46:46.119Z,7.29
2022-12-18T17:49:14.096Z,7.41
2022-12-18T17:51:43.097Z,7.52
2022-12-18T17:54:11.217Z,7.64
2022-12-18T17:56:38.940Z,7.53
2022-12-18T17:59:07.192Z,7.53
2022-12-18T18:01:37.352Z,7.51
2022-12-18T18:04:08.128Z,7.26
2022-12-18T18:06:38.892Z,7.32
2022-12-18T18:09:09.993Z,7.40
2022-12-18T18:12:10.315Z,7.29
2022-12-18T18:14:42.448Z,7.24
2022-12-18T18:17:09.502Z,7.45
2022-12-18T18:19:36.522Z,7.18
2022-12-18T18:22:03.702Z,7.02
2022-12-18T18:24:30.842Z,6.89
2022-12-18T18:26:59.690Z,6.91
2022-12-18T18:29:28.628Z,7.02
2022-12-18T18:31:57.044Z,7.03
2022-12-18T18:34:26.746Z,7.21
2022-12-18T18:36:53.641Z,7.37
2022-12-18T18:39:20.479Z,7.41
2022-12-18T18:41:48.740Z,7.40
2022-12-18T18:44:20.660Z,7.52
2022-12-18T18:46:54.155Z,7.49
2022-12-18T18:49:21.469Z,7.57
2022-12-18T18:51:50.517Z,7.49
2022-12-18T18:54:17.358Z,7.31
2022-12-18T18:59:32.008Z,7.60
2022-12-18T19:02:00.676Z,7.69
2022-12-18T19:04:32.415Z,7.62
2022-12-18T19:06:59.266Z,7.71
2022-12-18T19:09:26.378Z,7.64
2022-12-18T19:12:12.683Z,7.56
2022-12-18T19:14:39.501Z,7.72
2022-12-18T19:17:06.356Z,7.49
2022-12-18T19:19:33.515Z,7.48
2022-12-18T19:22:00.490Z,7.42
2022-12-18T19:24:27.722Z,7.45
2022-12-18T19:26:57.918Z,7.23
2022-12-18T19:29:25.623Z,7.28
2022-12-18T19:31:53.139Z,7.08
2022-12-18T19:34:20.719Z,7.15
2022-12-18T19:36:47.834Z,7.25
2022-12-18T19:39:17.605Z,7.22
2022-12-18T19:41:45.271Z,7.13
2022-12-18T19:44:17.843Z,6.95
2022-12-18T19:46:46.255Z,6.96
2022-12-18T19:49:18.133Z,7.06
2022-12-18T19:51:46.011Z,6.86
2022-12-18T19:54:17.266Z,6.76
2022-12-18T19:56:45.181Z,6.76
2022-12-18T19:59:12.025Z,6.72
2022-12-18T20:01:39.015Z,6.70
2022-12-18T20:04:06.285Z,6.67
2022-12-18T20:06:55.347Z,6.49
2022-12-18T20:09:22.397Z,6.48
2022-12-18T20:11:49.622Z,6.48
2022-12-18T20:14:22.321Z,6.52
2022-12-18T20:16:50.826Z,6.73
2022-12-18T20:19:18.892Z,6.53
2022-12-18T20:21:46.074Z,6.70
2022-12-18T20:24:13.391Z,6.59
2022-12-18T20:26:40.679Z,6.63
2022-12-18T20:29:07.589Z,6.72
2022-12-18T20:31:34.721Z,6.66
2022-12-18T20:34:03.614Z,6.75
2022-12-18T20:36:33.069Z,6.71
2022-12-18T20:39:06.430Z,6.80
2022-12-18T20:41:38.800Z,6.77
2022-12-18T20:44:22.759Z,6.61
2022-12-18T20:46:56.677Z,6.68
2022-12-18T20:49:25.573Z,6.61
2022-12-18T20:51:58.693Z,6.55
2022-12-18T20:54:27.416Z,6.65
2022-12-18T20:56:55.558Z,6.62
2022-12-18T20:59:25.265Z,6.63
2022-12-18T21:01:52.866Z,6.72
2022-12-18T21:04:20.820Z,6.62
2022-12-18T21:06:54.129Z,6.60
2022-12-18T21:09:25.898Z,6.61
2022-12-18T21:12:14.211Z,6.50
2022-12-18T21:14:41.354Z,6.51
2022-12-18T21:17:08.329Z,6.56
2022-12-18T21:19:35.414Z,6.60
2022-12-18T21:22:04.570Z,6.52
2022-12-18T21:24:32.695Z,6.64
2022-12-18T21:26:59.999Z,6.70
2022-12-18T21:29:27.050Z,6.51
2022-12-18T21:31:54.934Z,6.54
2022-12-18T21:34:27.829Z,6.44
2022-12-18T21:36:57.354Z,6.32
2022-12-18T21:39:25.286Z,6.42
2022-12-18T21:42:10.846Z,6.08
2022-12-18T21:44:42.175Z,5.96
2022-12-18T21:47:22.091Z,5.73
2022-12-18T21:49:49.662Z,5.67
2022-12-18T21:52:17.027Z,5.66
2022-12-18T21:54:43.922Z,5.77
2022-12-18T21:57:11.049Z,5.95
2022-12-18T21:59:40.542Z,5.81
2022-12-18T22:02:15.965Z,5.72
2022-12-18T22:04:43.965Z,5.70
2022-12-18T22:07:11.773Z,5.70
2022-12-18T22:09:38.813Z,5.78
2022-12-18T22:12:06.343Z,5.63
2022-12-18T22:14:33.124Z,5.65
2022-12-18T22:17:00.000Z,5.60
2022-12-18T22:19:27.951Z,5.53
2022-12-18T22:21:55.365Z,5.55
2022-12-18T22:24:24.595Z,5.58
2022-12-18T22:27:01.771Z,5.60
2022-12-18T22:29:48.316Z,5.66
2022-12-18T22:32:20.414Z,5.63
2022-12-18T22:35:04.901Z,5.67
2022-12-18T22:37:33.019Z,5.57
2022-12-18T22:39:59.880Z,5.84
2022-12-18T22:42:31.253Z,5.87
2022-12-18T22:45:00.789Z,5.68
2022-12-18T22:47:30.064Z,5.58
2022-12-18T22:49:58.129Z,5.85
2022-12-18T22:52:27.699Z,5.82
2022-12-18T22:54:54.601Z,5.95
2022-12-18T22:57:22.470Z,5.67
2022-12-18T22:59:50.412Z,5.79
2022-12-18T23:02:20.519Z,5.80
2022-12-18T23:04:50.518Z,5.76
2022-12-18T23:07:17.345Z,6.12
2022-12-18T23:09:44.915Z,6.29
2022-12-18T23:12:15.912Z,6.35
2022-12-18T23:14:44.220Z,6.25
2022-12-18T23:17:11.207Z,6.33
2022-12-18T23:19:38.043Z,6.06
2022-12-18T23:22:10.018Z,5.92
2022-12-18T23:24:38.519Z,5.63
2022-12-18T23:27:06.511Z,5.83
2022-12-18T23:29:38.288Z,5.86
2022-12-18T23:32:05.122Z,5.47
2022-12-18T23:34:32.116Z,5.60
2022-12-18T23:36:59.008Z,5.30
2022-12-18T23:39:29.298Z,5.44
2022-12-18T23:42:00.495Z,5.55
2022-12-18T23:44:28.150Z,5.43
2022-12-18T23:46:55.532Z,5.49
2022-12-18T23:49:22.691Z,5.12
2022-12-18T23:51:49.675Z,5.10
2022-12-18T23:54:16.609Z,5.06
2022-12-18T23:56:43.424Z,5.18
2022-12-18T23:59:10.341Z,5.12
